createdAt,value
2023-02-25T00:01:44.503Z,995.27
2023-02-25T00:04:14.860Z,995.28
2023-02-25T00:06:50.866Z,995.28
2023-02-25T00:09:24.001Z,995.28
2023-02-25T00:11:57.882Z,995.29
2023-02-25T00:14:30.879Z,995.31
2023-02-25T00:17:04.016Z,995.33
2023-02-25T00:19:36.996Z,995.34
2023-02-25T00:22:09.776Z,995.35
2023-02-25T00:24:42.726Z,995.35
2023-02-25T00:27:15.930Z,995.36
2023-02-25T00:29:48.782Z,995.37
2023-02-25T00:32:22.251Z,995.39
2023-02-25T00:34:54.992Z,995.42
2023-02-25T00:37:28.000Z,995.43
2023-02-25T00:40:00.925Z,995.43
2023-02-25T00:42:33.643Z,995.43
2023-02-25T00:45:06.968Z,995.45
2023-02-25T00:47:39.915Z,995.48
2023-02-25T00:50:12.911Z,995.49
2023-02-25T00:52:45.654Z,995.52
2023-02-25T00:55:18.909Z,995.53
2023-02-25T00:57:51.932Z,995.54
2023-02-25T01:00:24.959Z,995.57
2023-02-25T01:02:58.296Z,995.60
2023-02-25T01:05:31.760Z,995.61
2023-02-25T01:08:05.052Z,995.62
2023-02-25T01:10:38.175Z,995.63
2023-02-25T01:13:12.099Z,995.65
2023-02-25T01:15:44.937Z,995.68
2023-02-25T01:18:17.986Z,995.69
2023-02-25T01:20:51.006Z,995.68
2023-02-25T01:23:23.992Z,995.67
2023-02-25T01:25:56.988Z,995.68
2023-02-25T01:28:30.046Z,995.68
2023-02-25T01:31:03.215Z,995.66
2023-02-25T01:33:37.061Z,995.65
2023-02-25T01:36:09.833Z,995.65
2023-02-25T01:38:43.060Z,995.66
2023-02-25T01:41:15.682Z,995.68
2023-02-25T01:43:49.083Z,995.68
2023-02-25T01:46:22.323Z,995.68
2023-02-25T01:48:55.117Z,995.68
2023-02-25T01:51:27.826Z,995.66
2023-02-25T01:54:01.266Z,995.66
2023-02-25T01:56:35.023Z,995.66
2023-02-25T01:59:07.888Z,995.67
2023-02-25T02:01:41.185Z,995.66
2023-02-25T02:04:15.008Z,995.67
2023-02-25T02:06:48.062Z,995.68
2023-02-25T02:09:21.072Z,995.69
2023-02-25T02:11:53.766Z,995.71
2023-02-25T02:17:16.791Z,995.72
2023-02-25T02:19:49.932Z,995.73
2023-02-25T02:22:23.118Z,995.73
2023-02-25T02:24:55.753Z,995.72
2023-02-25T02:27:28.888Z,995.73
2023-02-25T02:30:15.710Z,995.75
2023-02-25T02:32:49.058Z,995.77
2023-02-25T02:35:21.796Z,995.78
2023-02-25T02:37:54.903Z,995.79
2023-02-25T02:40:28.144Z,995.80
2023-02-25T02:43:01.143Z,995.81
2023-02-25T02:45:34.362Z,995.84
2023-02-25T02:48:07.991Z,995.86
2023-02-25T02:50:41.190Z,995.88
2023-02-25T02:53:14.104Z,995.90
2023-02-25T02:55:47.163Z,995.89
2023-02-25T02:58:20.139Z,995.90
2023-02-25T03:00:53.071Z,995.89
2023-02-25T03:03:26.225Z,995.90
2023-02-25T03:05:59.160Z,995.90
2023-02-25T03:08:31.922Z,995.90
2023-02-25T03:11:05.215Z,995.92
2023-02-25T03:13:37.907Z,995.92
2023-02-25T03:16:11.174Z,995.95
2023-02-25T03:18:44.234Z,995.95
2023-02-25T03:21:17.136Z,995.96
2023-02-25T03:23:50.127Z,995.97
2023-02-25T03:26:23.350Z,995.96
2023-02-25T03:28:55.966Z,995.97
2023-02-25T03:31:29.363Z,995.97
2023-02-25T03:34:02.054Z,995.97
2023-02-25T03:36:35.155Z,996.00
2023-02-25T03:39:07.952Z,996.01
2023-02-25T03:41:40.999Z,996.03
2023-02-25T03:44:14.143Z,996.04
2023-02-25T03:46:47.083Z,996.06
2023-02-25T03:49:19.907Z,996.08
2023-02-25T03:51:53.051Z,996.06
2023-02-25T03:54:26.021Z,996.05
2023-02-25T03:56:59.376Z,996.05
2023-02-25T03:59:33.267Z,996.05
2023-02-25T04:02:06.236Z,996.05
2023-02-25T04:04:39.167Z,996.04
2023-02-25T04:07:12.225Z,996.03
2023-02-25T04:09:44.968Z,996.04
2023-02-25T04:12:18.242Z,996.05
2023-02-25T04:14:51.008Z,996.08
2023-02-25T04:17:23.988Z,996.11
2023-02-25T04:19:57.230Z,996.14
2023-02-25T04:22:30.254Z,996.18
2023-02-25T04:27:53.257Z,996.25
2023-02-25T04:30:26.345Z,996.28
2023-02-25T04:32:59.407Z,996.32
2023-02-25T04:35:33.369Z,996.36
2023-02-25T04:38:08.979Z,996.37
2023-02-25T04:40:53.001Z,996.40
2023-02-25T04:43:26.172Z,996.40
2023-02-25T04:45:59.373Z,996.41
2023-02-25T04:48:32.145Z,996.43
2023-02-25T04:51:05.164Z,996.40
2023-02-25T04:53:38.460Z,996.38
2023-02-25T04:56:12.226Z,996.37
2023-02-25T04:58:45.343Z,996.34
2023-02-25T05:01:17.990Z,996.34
2023-02-25T05:03:57.358Z,996.31
2023-02-25T05:06:30.296Z,996.30
2023-02-25T05:09:03.434Z,996.27
2023-02-25T05:11:37.592Z,996.25
2023-02-25T05:14:25.076Z,996.23
2023-02-25T05:16:58.370Z,996.22
2023-02-25T05:19:31.430Z,996.22
2023-02-25T05:22:04.368Z,996.22
2023-02-25T05:24:37.161Z,996.21
2023-02-25T05:27:10.532Z,996.20
2023-02-25T05:29:44.497Z,996.21
2023-02-25T05:32:17.485Z,996.21
2023-02-25T05:34:50.527Z,996.25
2023-02-25T05:37:24.428Z,996.26
2023-02-25T05:39:57.414Z,996.28
2023-02-25T05:42:30.324Z,996.30
2023-02-25T05:45:03.067Z,996.33
2023-02-25T05:47:36.209Z,996.35
2023-02-25T05:50:09.518Z,996.38
2023-02-25T05:52:46.142Z,996.40
2023-02-25T05:55:19.314Z,996.41
2023-02-25T05:57:52.243Z,996.41
2023-02-25T06:00:25.243Z,996.41
2023-02-25T06:02:58.495Z,996.40
2023-02-25T06:05:32.118Z,996.39
2023-02-25T06:08:05.260Z,996.37
2023-02-25T06:10:38.246Z,996.37
2023-02-25T06:13:11.394Z,996.36
2023-02-25T06:15:44.245Z,996.34
2023-02-25T06:18:20.351Z,996.34
2023-02-25T06:20:53.424Z,996.33
2023-02-25T06:23:26.372Z,996.32
2023-02-25T06:25:59.593Z,996.35
2023-02-25T06:28:33.474Z,996.36
2023-02-25T06:31:06.321Z,996.37
2023-02-25T06:33:39.414Z,996.39
2023-02-25T06:36:12.464Z,996.40
2023-02-25T06:38:45.675Z,996.42
2023-02-25T06:41:19.133Z,996.43
2023-02-25T06:43:52.748Z,996.47
2023-02-25T06:46:25.853Z,996.49
2023-02-25T06:48:58.516Z,996.54
2023-02-25T06:51:31.538Z,996.58
2023-02-25T06:54:04.468Z,996.64
2023-02-25T06:56:37.279Z,996.68
2023-02-25T06:59:10.487Z,996.75
2023-02-25T07:01:43.490Z,996.80
2023-02-25T07:04:16.280Z,996.82
2023-02-25T07:06:49.632Z,996.86
2023-02-25T07:09:23.699Z,996.91
2023-02-25T07:11:57.482Z,996.95
2023-02-25T07:14:30.241Z,996.99
2023-02-25T07:17:03.432Z,997.03
2023-02-25T07:19:36.384Z,997.07
2023-02-25T07:22:09.456Z,997.11
2023-02-25T07:24:42.543Z,997.14
2023-02-25T07:27:15.214Z,997.17
2023-02-25T07:29:48.417Z,997.18
2023-02-25T07:32:21.499Z,997.19
2023-02-25T07:34:54.373Z,997.19
2023-02-25T07:37:27.508Z,997.18
2023-02-25T07:40:03.183Z,997.19
2023-02-25T07:42:36.369Z,997.20
2023-02-25T07:45:09.559Z,997.20
2023-02-25T07:47:42.518Z,997.22
2023-02-25T07:50:15.312Z,997.24
2023-02-25T07:52:48.563Z,997.27
2023-02-25T07:55:21.289Z,997.30
2023-02-25T07:57:54.552Z,997.32
2023-02-25T08:00:27.435Z,997.33
2023-02-25T08:03:00.410Z,997.34
2023-02-25T08:05:33.399Z,997.35
2023-02-25T08:08:10.079Z,997.35
2023-02-25T08:10:43.373Z,997.33
2023-02-25T08:13:16.463Z,997.34
2023-02-25T08:15:49.373Z,997.35
2023-02-25T08:18:22.512Z,997.37
2023-02-25T08:20:55.438Z,997.37
2023-02-25T08:23:28.884Z,997.38
2023-02-25T08:26:02.380Z,997.39
2023-02-25T08:28:37.220Z,997.40
2023-02-25T08:31:11.559Z,997.41
2023-02-25T08:33:44.447Z,997.40
2023-02-25T08:36:17.332Z,997.41
2023-02-25T08:38:50.410Z,997.40
2023-02-25T08:41:23.914Z,997.38
2023-02-25T08:43:56.582Z,997.38
2023-02-25T08:46:29.730Z,997.38
2023-02-25T08:49:02.683Z,997.37
2023-02-25T08:51:35.772Z,997.36
2023-02-25T08:54:08.674Z,997.37
2023-02-25T08:56:41.709Z,997.36
2023-02-25T08:59:14.619Z,997.35
2023-02-25T09:01:47.437Z,997.36
2023-02-25T09:04:20.646Z,997.37
2023-02-25T09:06:53.489Z,997.37
2023-02-25T09:09:26.482Z,997.38
2023-02-25T09:12:00.024Z,997.41
2023-02-25T09:14:33.699Z,997.41
2023-02-25T09:17:06.591Z,997.40
2023-02-25T09:19:39.528Z,997.42
2023-02-25T09:22:12.504Z,997.41
2023-02-25T09:24:45.480Z,997.42
2023-02-25T09:27:18.744Z,997.44
2023-02-25T09:29:51.452Z,997.46
2023-02-25T09:32:25.554Z,997.47
2023-02-25T09:35:00.726Z,997.45
2023-02-25T09:37:31.518Z,997.44
2023-02-25T09:40:04.432Z,997.43
2023-02-25T09:42:37.576Z,997.43
2023-02-25T09:45:10.779Z,997.42
2023-02-25T09:47:43.913Z,997.40
2023-02-25T09:50:30.781Z,997.39
2023-02-25T09:53:03.615Z,997.40
2023-02-25T09:55:36.646Z,997.41
2023-02-25T09:58:09.923Z,997.42
2023-02-25T10:00:43.453Z,997.43
2023-02-25T10:03:16.623Z,997.43
2023-02-25T10:05:49.724Z,997.45
2023-02-25T10:08:22.717Z,997.43
2023-02-25T10:10:55.828Z,997.43
2023-02-25T10:13:28.517Z,997.42
2023-02-25T10:16:01.577Z,997.40
2023-02-25T10:18:34.814Z,997.39
2023-02-25T10:21:07.490Z,997.39
2023-02-25T10:23:40.840Z,997.37
2023-02-25T10:26:13.851Z,997.34
2023-02-25T10:28:47.052Z,997.32
2023-02-25T10:31:20.990Z,997.32
2023-02-25T10:33:53.609Z,997.30
2023-02-25T10:36:26.981Z,997.29
2023-02-25T10:39:00.808Z,997.28
2023-02-25T10:41:33.839Z,997.27
2023-02-25T10:44:07.012Z,997.26
2023-02-25T10:46:40.959Z,997.26
2023-02-25T10:49:16.382Z,997.28
2023-02-25T10:51:47.874Z,997.28
2023-02-25T10:54:20.859Z,997.28
2023-02-25T10:56:53.869Z,997.28
2023-02-25T10:59:28.468Z,997.28
2023-02-25T11:02:00.261Z,997.27
2023-02-25T11:04:33.834Z,997.26
2023-02-25T11:07:06.713Z,997.26
2023-02-25T11:09:39.855Z,997.27
2023-02-25T11:12:12.917Z,997.27
2023-02-25T11:14:45.969Z,997.28
2023-02-25T11:17:18.892Z,997.28
2023-02-25T11:19:51.881Z,997.28
2023-02-25T11:22:24.660Z,997.29
2023-02-25T11:24:57.783Z,997.29
2023-02-25T11:27:30.714Z,997.28
2023-02-25T11:30:03.631Z,997.28
2023-02-25T11:32:36.781Z,997.29
2023-02-25T11:35:09.763Z,997.30
2023-02-25T11:37:44.711Z,997.32
2023-02-25T11:40:15.748Z,997.32
2023-02-25T11:42:48.768Z,997.33
2023-02-25T11:45:21.640Z,997.31
2023-02-25T11:47:54.764Z,997.27
2023-02-25T11:50:27.823Z,997.24
2023-02-25T11:53:00.945Z,997.21
2023-02-25T11:55:33.655Z,997.19
2023-02-25T11:58:06.626Z,997.17
2023-02-25T12:00:39.844Z,997.16
2023-02-25T12:03:12.935Z,997.13
2023-02-25T12:05:46.107Z,997.10
2023-02-25T12:08:18.708Z,997.08
2023-02-25T12:10:52.047Z,997.07
2023-02-25T12:13:24.765Z,997.04
2023-02-25T12:15:57.928Z,997.03
2023-02-25T12:18:30.787Z,996.99
2023-02-25T12:21:03.780Z,996.96
2023-02-25T12:23:36.805Z,996.93
2023-02-25T12:26:09.860Z,996.93
2023-02-25T12:28:42.867Z,996.92
2023-02-25T12:31:19.538Z,996.90
2023-02-25T12:33:53.092Z,996.85
2023-02-25T12:36:25.778Z,996.84
2023-02-25T12:38:58.926Z,996.80
2023-02-25T12:41:31.846Z,996.76
2023-02-25T12:44:04.725Z,996.73
2023-02-25T12:46:37.819Z,996.73
2023-02-25T12:49:11.290Z,996.73
2023-02-25T12:51:44.843Z,996.71
2023-02-25T12:54:18.001Z,996.71
2023-02-25T12:56:51.276Z,996.70
2023-02-25T12:59:24.967Z,996.70
2023-02-25T13:01:57.745Z,996.69
2023-02-25T13:04:30.855Z,996.70
2023-02-25T13:07:03.768Z,996.72
2023-02-25T13:09:36.945Z,996.77
2023-02-25T13:12:11.766Z,996.84
2023-02-25T13:14:43.175Z,996.89
2023-02-25T13:17:15.769Z,996.94
2023-02-25T13:19:49.052Z,997.00
2023-02-25T13:22:21.734Z,997.04
2023-02-25T13:24:54.881Z,997.07
2023-02-25T13:27:28.119Z,997.11
2023-02-25T13:30:00.892Z,997.13
2023-02-25T13:32:34.016Z,997.15
2023-02-25T13:35:06.864Z,997.14
2023-02-25T13:37:39.878Z,997.14
2023-02-25T13:40:12.980Z,997.14
2023-02-25T13:42:45.776Z,997.14
2023-02-25T13:45:19.032Z,997.15
2023-02-25T13:47:51.946Z,997.14
2023-02-25T13:50:25.068Z,997.14
2023-02-25T13:52:57.806Z,997.15
2023-02-25T13:55:31.013Z,997.14
2023-02-25T13:58:03.964Z,997.13
2023-02-25T14:00:37.347Z,997.12
2023-02-25T14:03:11.118Z,997.13
2023-02-25T14:05:44.179Z,997.12
2023-02-25T14:08:17.135Z,997.11
2023-02-25T14:10:50.006Z,997.13
2023-02-25T14:13:22.834Z,997.15
2023-02-25T14:15:56.096Z,997.16
2023-02-25T14:18:28.907Z,997.15
2023-02-25T14:21:02.482Z,997.16
2023-02-25T14:23:35.952Z,997.16
2023-02-25T14:26:08.955Z,997.16
2023-02-25T14:28:41.866Z,997.13
2023-02-25T14:31:14.990Z,997.13
2023-02-25T14:33:48.197Z,997.11
2023-02-25T14:36:20.888Z,997.12
2023-02-25T14:38:54.894Z,997.12
2023-02-25T14:41:28.086Z,997.10
2023-02-25T14:44:01.086Z,997.11
2023-02-25T14:46:34.053Z,997.11
2023-02-25T14:49:07.051Z,997.12
2023-02-25T14:51:43.021Z,997.14
2023-02-25T14:54:16.180Z,997.18
2023-02-25T14:56:49.296Z,997.21
2023-02-25T14:59:22.124Z,997.23
2023-02-25T15:01:55.478Z,997.25
2023-02-25T15:04:29.083Z,997.27
2023-02-25T15:07:01.912Z,997.28
2023-02-25T15:09:34.981Z,997.30
2023-02-25T15:12:08.243Z,997.34
2023-02-25T15:14:41.282Z,997.35
2023-02-25T15:17:14.085Z,997.39
2023-02-25T15:19:47.381Z,997.41
2023-02-25T15:22:21.036Z,997.42
2023-02-25T15:24:54.115Z,997.45
2023-02-25T15:27:27.241Z,997.47
2023-02-25T15:30:00.094Z,997.52
2023-02-25T15:32:33.066Z,997.54
2023-02-25T15:35:06.311Z,997.58
2023-02-25T15:37:39.063Z,997.67
2023-02-25T15:40:11.953Z,997.80
2023-02-25T15:42:45.324Z,997.91
2023-02-25T15:48:08.389Z,998.08
2023-02-25T15:50:41.366Z,998.11
2023-02-25T15:53:14.245Z,998.17
2023-02-25T15:55:47.239Z,998.20
2023-02-25T15:58:23.240Z,998.25
2023-02-25T16:00:56.383Z,998.27
2023-02-25T16:03:29.010Z,998.28
2023-02-25T16:06:02.153Z,998.35
2023-02-25T16:08:35.300Z,998.39
2023-02-25T16:11:08.323Z,998.44
2023-02-25T16:16:31.341Z,998.44
2023-02-25T16:19:04.144Z,998.45
2023-02-25T16:21:37.062Z,998.49
2023-02-25T16:24:10.032Z,998.52
2023-02-25T16:26:43.125Z,998.55
2023-02-25T16:29:16.319Z,998.60
2023-02-25T16:31:49.433Z,998.64
2023-02-25T16:34:22.248Z,998.68
2023-02-25T16:36:55.149Z,998.72
2023-02-25T16:39:28.324Z,998.77
2023-02-25T16:42:01.507Z,998.80
2023-02-25T16:44:37.033Z,998.83
2023-02-25T16:47:08.073Z,998.88
2023-02-25T16:49:41.413Z,998.92
2023-02-25T16:52:14.248Z,998.94
2023-02-25T16:54:47.356Z,998.94
2023-02-25T16:57:20.304Z,998.97
2023-02-25T16:59:53.384Z,999.01
2023-02-25T17:02:26.461Z,999.05
2023-02-25T17:04:59.374Z,999.09
2023-02-25T17:07:32.125Z,999.12
2023-02-25T17:10:05.306Z,999.16
2023-02-25T17:12:38.378Z,999.21
2023-02-25T17:15:11.393Z,999.25
2023-02-25T17:17:44.442Z,999.28
2023-02-25T17:20:17.094Z,999.31
2023-02-25T17:22:50.340Z,999.35
2023-02-25T17:25:23.111Z,999.39
2023-02-25T17:27:56.387Z,999.42
2023-02-25T17:30:29.457Z,999.44
2023-02-25T17:33:02.293Z,999.49
2023-02-25T17:35:35.169Z,999.55
2023-02-25T17:38:08.494Z,999.63
2023-02-25T17:40:41.191Z,999.69
2023-02-25T17:43:14.491Z,999.74
2023-02-25T17:45:47.461Z,999.79
2023-02-25T17:48:20.165Z,999.82
2023-02-25T17:50:53.311Z,999.87
2023-02-25T17:53:26.705Z,999.91
2023-02-25T17:56:00.253Z,999.96
2023-02-25T17:58:33.421Z,999.99
2023-02-25T18:01:08.345Z,1000.03
2023-02-25T18:03:41.192Z,1000.06
2023-02-25T18:06:14.508Z,1000.09
2023-02-25T18:08:47.471Z,1000.14
2023-02-25T18:11:20.222Z,1000.17
2023-02-25T18:13:53.342Z,1000.21
2023-02-25T18:16:26.990Z,1000.24
2023-02-25T18:18:59.522Z,1000.27
2023-02-25T18:21:32.261Z,1000.31
2023-02-25T18:24:05.668Z,1000.34
2023-02-25T18:26:39.581Z,1000.39
2023-02-25T18:29:12.231Z,1000.42
2023-02-25T18:31:45.520Z,1000.43
2023-02-25T18:34:18.490Z,1000.47
2023-02-25T18:36:51.269Z,1000.50
2023-02-25T18:39:24.359Z,1000.52
2023-02-25T18:41:57.364Z,1000.55
2023-02-25T18:44:30.240Z,1000.58
2023-02-25T18:47:05.255Z,1000.59
2023-02-25T18:49:38.347Z,1000.62
2023-02-25T18:52:11.471Z,1000.67
2023-02-25T18:54:44.581Z,1000.70
2023-02-25T18:57:17.338Z,1000.75
2023-02-25T18:59:50.691Z,1000.77
2023-02-25T19:02:23.407Z,1000.80
2023-02-25T19:04:56.602Z,1000.83
2023-02-25T19:07:29.613Z,1000.86
2023-02-25T19:10:02.541Z,1000.89
2023-02-25T19:12:35.567Z,1000.93
2023-02-25T19:15:08.292Z,1000.98
2023-02-25T19:17:41.309Z,1001.02
2023-02-25T19:20:14.482Z,1001.06
2023-02-25T19:22:47.342Z,1001.09
2023-02-25T19:25:20.339Z,1001.12
2023-02-25T19:27:59.382Z,1001.17
2023-02-25T19:30:32.654Z,1001.22
2023-02-25T19:33:05.317Z,1001.26
2023-02-25T19:35:38.598Z,1001.30
2023-02-25T19:38:12.514Z,1001.32
2023-02-25T19:40:45.360Z,1001.35
2023-02-25T19:43:18.317Z,1001.38
2023-02-25T19:45:51.923Z,1001.41
2023-02-25T19:48:25.513Z,1001.46
2023-02-25T19:50:58.352Z,1001.49
2023-02-25T19:53:31.496Z,1001.54
2023-02-25T19:56:04.434Z,1001.58
2023-02-25T19:58:37.679Z,1001.63
2023-02-25T20:01:10.768Z,1001.66
2023-02-25T20:03:44.602Z,1001.70
2023-02-25T20:06:17.431Z,1001.74
2023-02-25T20:08:50.508Z,1001.77
2023-02-25T20:11:23.495Z,1001.82
2023-02-25T20:13:56.601Z,1001.86
2023-02-25T20:16:29.770Z,1001.89
2023-02-25T20:19:02.484Z,1001.94
2023-02-25T20:21:35.490Z,1001.96
2023-02-25T20:24:08.526Z,1002.01
2023-02-25T20:26:41.431Z,1002.04
2023-02-25T20:29:14.557Z,1002.08
2023-02-25T20:31:47.744Z,1002.10
2023-02-25T20:34:20.525Z,1002.13
2023-02-25T20:36:53.419Z,1002.15
2023-02-25T20:39:26.547Z,1002.20
2023-02-25T20:41:59.427Z,1002.22
2023-02-25T20:44:32.811Z,1002.24
2023-02-25T20:47:05.429Z,1002.27
2023-02-25T20:49:38.571Z,1002.30
2023-02-25T20:52:11.635Z,1002.33
2023-02-25T20:54:44.454Z,1002.35
2023-02-25T20:57:17.465Z,1002.38
2023-02-25T20:59:50.755Z,1002.39
2023-02-25T21:02:23.728Z,1002.40
2023-02-25T21:04:56.664Z,1002.41
2023-02-25T21:07:29.612Z,1002.43
2023-02-25T21:10:02.617Z,1002.47
2023-02-25T21:12:49.400Z,1002.49
2023-02-25T21:15:22.505Z,1002.52
2023-02-25T21:17:55.653Z,1002.54
2023-02-25T21:20:28.609Z,1002.58
2023-02-25T21:23:01.671Z,1002.62
2023-02-25T21:25:35.654Z,1002.66
2023-02-25T21:28:08.897Z,1002.68
2023-02-25T21:30:41.628Z,1002.72
2023-02-25T21:33:14.648Z,1002.74
2023-02-25T21:35:47.773Z,1002.76
2023-02-25T21:38:20.634Z,1002.78
2023-02-25T21:40:53.650Z,1002.80
2023-02-25T21:43:26.612Z,1002.82
2023-02-25T21:45:59.726Z,1002.82
2023-02-25T21:48:32.710Z,1002.84
2023-02-25T21:51:05.776Z,1002.84
2023-02-25T21:53:38.757Z,1002.85
2023-02-25T21:56:11.616Z,1002.86
2023-02-25T21:58:44.579Z,1002.89
2023-02-25T22:01:17.555Z,1002.89
2023-02-25T22:03:50.554Z,1002.91
2023-02-25T22:06:24.402Z,1002.93
2023-02-25T22:08:56.749Z,1002.95
2023-02-25T22:11:29.700Z,1002.97
2023-02-25T22:14:02.598Z,1002.97
2023-02-25T22:16:35.834Z,1002.96
2023-02-25T22:19:08.732Z,1002.96
2023-02-25T22:21:41.907Z,1002.97
2023-02-25T22:24:14.897Z,1002.98
2023-02-25T22:26:49.647Z,1002.99
2023-02-25T22:29:25.691Z,1003.00
2023-02-25T22:31:58.835Z,1003.02
2023-02-25T22:34:32.097Z,1003.03
2023-02-25T22:37:05.862Z,1003.04
2023-02-25T22:39:38.698Z,1003.05
2023-02-25T22:42:11.783Z,1003.08
2023-02-25T22:44:44.863Z,1003.08
2023-02-25T22:47:18.028Z,1003.09
2023-02-25T22:49:50.612Z,1003.08
2023-02-25T22:52:24.029Z,1003.10
2023-02-25T22:54:57.962Z,1003.11
2023-02-25T22:57:30.784Z,1003.11
2023-02-25T23:00:03.769Z,1003.11
2023-02-25T23:02:36.971Z,1003.10
2023-02-25T23:05:10.058Z,1003.12
2023-02-25T23:07:43.985Z,1003.13
2023-02-25T23:10:16.616Z,1003.14
2023-02-25T23:12:49.736Z,1003.15
2023-02-25T23:15:22.792Z,1003.16
2023-02-25T23:17:55.936Z,1003.17
2023-02-25T23:20:28.965Z,1003.20
2023-02-25T23:23:02.014Z,1003.23
2023-02-25T23:28:24.849Z,1003.25
2023-02-25T23:30:57.756Z,1003.28
2023-02-25T23:33:31.007Z,1003.30
2023-02-25T23:36:03.880Z,1003.32
2023-02-25T23:38:37.004Z,1003.34
2023-02-25T23:41:09.795Z,1003.36
2023-02-25T23:43:43.035Z,1003.39
2023-02-25T23:46:16.107Z,1003.39
2023-02-25T23:48:49.146Z,1003.40
2023-02-25T23:51:23.005Z,1003.39
2023-02-25T23:53:55.845Z,1003.39
2023-02-25T23:56:28.789Z,1003.40
2023-02-25T23:59:01.757Z,1003.41
